createdAt,value
2022-11-20T00:00:21.107Z,87.70
2022-11-20T00:02:47.957Z,87.60
2022-11-20T00:05:14.901Z,87.40
2022-11-20T00:07:42.091Z,87.40
2022-11-20T00:10:09.193Z,87.40
2022-11-20T00:12:36.224Z,87.40
2022-11-20T00:15:03.377Z,87.70
2022-11-20T00:17:30.453Z,87.80
2022-11-20T00:19:57.380Z,88.10
2022-11-20T00:22:24.377Z,87.60
2022-11-20T00:24:51.379Z,87.60
2022-11-20T00:27:18.325Z,87.50
2022-11-20T00:29:45.221Z,87.20
2022-11-20T00:32:12.213Z,87.20
2022-11-20T00:34:39.071Z,87.10
2022-11-20T00:37:06.069Z,86.50
2022-11-20T00:39:32.935Z,86.70
2022-11-20T00:41:59.775Z,86.70
2022-11-20T00:44:26.718Z,86.70
2022-11-20T00:46:53.604Z,86.70
2022-11-20T00:49:20.688Z,86.70
2022-11-20T00:51:47.739Z,86.70
2022-11-20T00:54:14.599Z,86.70
2022-11-20T00:56:41.649Z,86.80
2022-11-20T00:59:10.092Z,87.00
2022-11-20T01:01:37.078Z,86.60
2022-11-20T01:04:04.368Z,86.70
2022-11-20T01:06:35.680Z,87.10
2022-11-20T01:09:05.599Z,87.30
2022-11-20T01:11:36.717Z,87.30
2022-11-20T01:14:04.778Z,87.50
2022-11-20T01:16:33.131Z,87.80
2022-11-20T01:19:00.840Z,87.80
2022-11-20T01:21:28.839Z,88.00
2022-11-20T01:23:55.900Z,88.10
2022-11-20T01:26:27.115Z,88.10
2022-11-20T01:28:54.486Z,87.70
2022-11-20T01:31:25.991Z,87.60
2022-11-20T01:33:54.900Z,86.90
2022-11-20T01:36:22.600Z,87.20
2022-11-20T01:38:52.297Z,87.30
2022-11-20T01:41:38.174Z,87.40
2022-11-20T01:44:05.803Z,87.60
2022-11-20T01:46:34.557Z,87.90
2022-11-20T01:49:01.470Z,87.80
2022-11-20T01:51:36.469Z,87.60
2022-11-20T01:54:06.719Z,87.50
2022-11-20T01:56:37.824Z,87.50
2022-11-20T01:59:06.381Z,87.50
2022-11-20T02:01:33.418Z,87.30
2022-11-20T02:04:01.042Z,86.90
2022-11-20T02:06:31.111Z,86.80
2022-11-20T02:08:58.162Z,87.00
2022-11-20T02:11:25.227Z,87.10
2022-11-20T02:16:45.452Z,86.70
2022-11-20T02:19:24.261Z,86.20
2022-11-20T02:22:17.758Z,85.90
2022-11-20T02:24:45.587Z,85.60
2022-11-20T02:27:13.949Z,85.50
2022-11-20T02:29:54.852Z,85.30
2022-11-20T02:32:25.294Z,85.50
2022-11-20T02:34:52.121Z,85.20
2022-11-20T02:37:19.136Z,84.70
2022-11-20T02:39:47.211Z,85.10
2022-11-20T02:42:14.166Z,85.40
2022-11-20T02:44:41.020Z,85.00
2022-11-20T02:47:07.822Z,85.10
2022-11-20T02:49:34.613Z,85.30
2022-11-20T02:52:01.351Z,85.20
2022-11-20T02:54:28.211Z,85.00
2022-11-20T02:56:54.939Z,85.20
2022-11-20T02:59:21.971Z,85.10
2022-11-20T03:01:49.048Z,85.20
2022-11-20T03:04:15.895Z,85.40
2022-11-20T03:06:42.824Z,85.30
2022-11-20T03:09:10.297Z,84.90
2022-11-20T03:11:37.093Z,85.10
2022-11-20T03:14:04.693Z,85.40
2022-11-20T03:16:31.977Z,85.20
2022-11-20T03:18:58.948Z,85.10
2022-11-20T03:21:25.892Z,85.20
2022-11-20T03:23:54.125Z,84.90
2022-11-20T03:26:25.259Z,84.90
2022-11-20T03:28:55.918Z,85.00
2022-11-20T03:31:24.549Z,85.40
2022-11-20T03:33:51.859Z,85.80
2022-11-20T03:36:19.784Z,84.90
2022-11-20T03:38:46.863Z,85.10
2022-11-20T03:41:15.561Z,85.00
2022-11-20T03:43:42.425Z,85.30
2022-11-20T03:46:09.352Z,85.70
2022-11-20T03:48:36.137Z,86.00
2022-11-20T03:51:12.267Z,85.90
2022-11-20T03:53:39.557Z,86.00
2022-11-20T03:56:06.530Z,85.90
2022-11-20T03:58:33.849Z,85.90
2022-11-20T04:01:05.206Z,86.20
2022-11-20T04:03:32.072Z,85.50
2022-11-20T04:06:03.414Z,85.70
2022-11-20T04:08:31.242Z,85.70
2022-11-20T04:10:58.069Z,85.80
2022-11-20T04:13:24.787Z,85.90
2022-11-20T04:15:51.550Z,85.00
2022-11-20T04:18:18.289Z,84.80
2022-11-20T04:20:45.053Z,84.40
2022-11-20T04:23:11.790Z,85.00
2022-11-20T04:25:38.541Z,85.60
2022-11-20T04:28:05.503Z,85.80
2022-11-20T04:30:32.686Z,85.80
2022-11-20T04:32:59.533Z,85.30
2022-11-20T04:35:26.424Z,85.50
2022-11-20T04:37:53.595Z,85.40
2022-11-20T04:40:20.467Z,85.10
2022-11-20T04:42:47.342Z,85.00
2022-11-20T04:45:14.106Z,85.70
2022-11-20T04:47:40.887Z,85.00
2022-11-20T04:50:08.028Z,84.70
2022-11-20T04:52:34.840Z,85.10
2022-11-20T04:55:01.654Z,85.10
2022-11-20T04:57:28.531Z,85.30
2022-11-20T04:59:55.324Z,85.00
2022-11-20T05:02:22.778Z,85.10
2022-11-20T05:04:49.715Z,85.00
2022-11-20T05:07:16.759Z,85.20
2022-11-20T05:09:43.668Z,85.60
2022-11-20T05:12:10.851Z,85.60
2022-11-20T05:14:39.525Z,85.50
2022-11-20T05:17:07.014Z,85.60
2022-11-20T05:19:33.983Z,85.60
2022-11-20T05:22:00.864Z,85.80
2022-11-20T05:24:27.793Z,85.10
2022-11-20T05:26:54.647Z,84.90
2022-11-20T05:29:21.656Z,85.30
2022-11-20T05:31:48.598Z,84.80
2022-11-20T05:34:15.527Z,85.00
2022-11-20T05:36:42.293Z,84.80
2022-11-20T05:39:09.124Z,84.50
2022-11-20T05:41:36.059Z,84.70
2022-11-20T05:44:02.852Z,84.70
2022-11-20T05:46:29.933Z,85.10
2022-11-20T05:48:57.745Z,85.30
2022-11-20T05:51:25.053Z,85.40
2022-11-20T05:53:52.059Z,85.50
2022-11-20T05:56:20.730Z,85.20
2022-11-20T05:58:48.250Z,84.50
2022-11-20T06:01:22.912Z,85.00
2022-11-20T06:03:51.653Z,85.40
2022-11-20T06:06:19.495Z,85.50
2022-11-20T06:08:46.568Z,85.50
2022-11-20T06:11:14.081Z,85.40
2022-11-20T06:13:42.619Z,85.60
2022-11-20T06:16:10.595Z,86.00
2022-11-20T06:18:37.711Z,86.10
2022-11-20T06:21:09.165Z,86.30
2022-11-20T06:23:36.753Z,85.80
2022-11-20T06:26:09.777Z,85.80
2022-11-20T06:28:36.788Z,85.10
2022-11-20T06:31:04.218Z,84.70
2022-11-20T06:33:31.074Z,84.30
2022-11-20T06:36:08.966Z,84.40
2022-11-20T06:38:37.586Z,84.30
2022-11-20T06:41:04.814Z,85.30
2022-11-20T06:43:31.895Z,85.10
2022-11-20T06:45:59.331Z,84.90
2022-11-20T06:48:29.881Z,85.10
2022-11-20T06:50:57.268Z,84.90
2022-11-20T06:53:24.505Z,84.70
2022-11-20T06:55:51.783Z,85.30
2022-11-20T06:58:18.577Z,85.50
2022-11-20T07:00:45.505Z,85.50
2022-11-20T07:03:12.758Z,85.60
2022-11-20T07:05:40.355Z,85.30
2022-11-20T07:08:07.490Z,84.80
2022-11-20T07:10:36.520Z,84.80
2022-11-20T07:13:03.300Z,84.80
2022-11-20T07:15:30.069Z,85.30
2022-11-20T07:17:59.296Z,85.70
2022-11-20T07:20:26.050Z,86.20
2022-11-20T07:22:57.325Z,85.40
2022-11-20T07:25:25.110Z,85.30
2022-11-20T07:27:52.155Z,85.40
2022-11-20T07:30:19.522Z,85.50
2022-11-20T07:32:47.652Z,86.10
2022-11-20T07:35:15.548Z,86.00
2022-11-20T07:37:42.342Z,86.30
2022-11-20T07:40:09.411Z,85.50
2022-11-20T07:42:36.272Z,85.40
2022-11-20T07:45:03.275Z,85.60
2022-11-20T07:47:38.519Z,85.10
2022-11-20T07:50:06.831Z,85.00
2022-11-20T07:52:33.621Z,85.40
2022-11-20T07:55:02.830Z,85.60
2022-11-20T07:57:29.614Z,85.60
2022-11-20T07:59:56.351Z,85.90
2022-11-20T08:02:23.290Z,84.80
2022-11-20T08:04:50.123Z,84.90
2022-11-20T08:07:17.064Z,84.90
2022-11-20T08:09:43.862Z,85.20
2022-11-20T08:12:36.304Z,85.50
2022-11-20T08:15:05.247Z,84.90
2022-11-20T08:17:34.359Z,85.30
2022-11-20T08:20:01.215Z,85.60
2022-11-20T08:22:30.886Z,86.10
2022-11-20T08:25:04.863Z,86.20
2022-11-20T08:27:40.667Z,86.10
2022-11-20T08:30:11.743Z,85.40
2022-11-20T08:35:42.820Z,85.40
2022-11-20T08:38:10.096Z,85.50
2022-11-20T08:40:37.220Z,85.90
2022-11-20T08:43:04.301Z,85.70
2022-11-20T08:45:34.665Z,85.00
2022-11-20T08:48:02.548Z,84.70
2022-11-20T08:50:29.699Z,84.70
2022-11-20T08:52:56.455Z,84.60
2022-11-20T08:55:23.170Z,84.70
2022-11-20T08:57:51.217Z,85.40
2022-11-20T09:00:18.212Z,86.20
2022-11-20T09:02:45.020Z,86.10
2022-11-20T09:05:11.948Z,85.30
2022-11-20T09:07:38.874Z,84.70
2022-11-20T09:12:53.390Z,85.10
2022-11-20T09:15:20.366Z,85.50
2022-11-20T09:17:57.885Z,85.30
2022-11-20T09:20:25.425Z,85.50
2022-11-20T09:22:52.558Z,85.80
2022-11-20T09:25:19.605Z,85.60
2022-11-20T09:27:47.321Z,85.50
2022-11-20T09:30:14.999Z,85.20
2022-11-20T09:32:42.090Z,85.00
2022-11-20T09:35:09.128Z,84.90
2022-11-20T09:37:36.937Z,84.60
2022-11-20T09:40:04.025Z,84.30
2022-11-20T09:42:48.689Z,84.30
2022-11-20T09:45:34.337Z,84.40
2022-11-20T09:48:19.323Z,84.50
2022-11-20T09:51:04.651Z,85.10
2022-11-20T09:53:43.716Z,84.90
2022-11-20T09:56:12.083Z,84.80
2022-11-20T09:58:43.879Z,84.60
2022-11-20T10:01:13.182Z,84.40
2022-11-20T10:03:58.409Z,84.10
2022-11-20T10:06:34.702Z,83.60
2022-11-20T10:09:08.088Z,83.30
2022-11-20T10:11:50.228Z,83.50
2022-11-20T10:14:54.248Z,83.10
2022-11-20T10:17:35.057Z,83.30
2022-11-20T10:20:01.838Z,83.20
2022-11-20T10:22:39.743Z,83.40
2022-11-20T10:25:12.808Z,82.70
2022-11-20T10:27:55.157Z,82.60
2022-11-20T10:30:25.316Z,82.40
2022-11-20T10:32:54.543Z,81.90
2022-11-20T10:35:37.779Z,82.10
2022-11-20T10:38:10.756Z,82.80
2022-11-20T10:40:50.223Z,82.10
2022-11-20T10:43:33.328Z,82.10
2022-11-20T10:46:10.235Z,82.50
2022-11-20T10:48:37.794Z,82.70
2022-11-20T10:51:18.291Z,82.70
2022-11-20T10:53:50.353Z,82.60
2022-11-20T10:56:31.565Z,82.60
2022-11-20T10:59:21.836Z,82.60
2022-11-20T11:01:48.966Z,82.60
2022-11-20T11:04:31.597Z,82.60
2022-11-20T11:07:02.341Z,82.60
2022-11-20T11:09:33.872Z,82.60
2022-11-20T11:12:06.858Z,83.20
2022-11-20T11:14:43.205Z,83.00
2022-11-20T11:17:19.264Z,83.20
2022-11-20T11:19:56.156Z,83.10
2022-11-20T11:22:24.015Z,82.80
2022-11-20T11:25:00.563Z,83.00
2022-11-20T11:27:28.061Z,82.80
2022-11-20T11:33:27.065Z,83.10
2022-11-20T11:39:25.000Z,82.50
2022-11-20T11:42:12.486Z,82.70
2022-11-20T11:45:03.713Z,82.40
2022-11-20T11:47:32.241Z,82.20
2022-11-20T11:50:17.205Z,82.50
2022-11-20T11:59:38.199Z,82.10
2022-11-20T12:02:14.143Z,81.60
2022-11-20T12:07:51.131Z,80.80
2022-11-20T12:10:29.438Z,81.50
2022-11-20T12:13:35.341Z,81.70
2022-11-20T12:18:55.232Z,81.80
2022-11-20T12:21:43.520Z,81.60
2022-11-20T12:24:17.138Z,81.50
2022-11-20T12:27:07.609Z,81.40
2022-11-20T12:29:46.768Z,81.90
2022-11-20T12:32:16.677Z,82.00
2022-11-20T12:34:58.827Z,82.10
2022-11-20T12:37:31.915Z,82.10
2022-11-20T12:40:19.298Z,81.80
2022-11-20T12:43:07.820Z,82.10
2022-11-20T12:45:36.927Z,81.90
2022-11-20T12:48:09.915Z,82.20
2022-11-20T12:51:13.450Z,82.20
2022-11-20T12:53:38.856Z,82.10
2022-11-20T12:56:24.698Z,81.40
2022-11-20T12:59:03.800Z,81.60
2022-11-20T13:01:48.667Z,81.50
2022-11-20T13:04:18.392Z,81.70
2022-11-20T13:06:45.993Z,83.50
2022-11-20T13:09:15.372Z,82.60
2022-11-20T13:11:48.867Z,82.20
2022-11-20T13:14:16.402Z,82.10
2022-11-20T13:16:53.968Z,82.10
2022-11-20T13:19:22.450Z,82.00
2022-11-20T13:21:51.648Z,82.10
2022-11-20T13:24:27.374Z,81.90
2022-11-20T13:27:05.188Z,81.80
2022-11-20T13:29:33.170Z,81.60
2022-11-20T13:32:07.962Z,81.00
2022-11-20T13:34:37.904Z,81.50
2022-11-20T13:37:25.471Z,81.40
2022-11-20T13:40:02.091Z,81.50
2022-11-20T13:42:29.327Z,81.20
2022-11-20T13:44:57.143Z,81.30
2022-11-20T13:47:26.246Z,81.50
2022-11-20T13:49:57.780Z,81.60
2022-11-20T13:52:25.064Z,81.60
2022-11-20T13:55:10.870Z,81.20
2022-11-20T13:57:56.827Z,81.20
2022-11-20T14:00:25.198Z,81.20
2022-11-20T14:03:14.495Z,81.00
2022-11-20T14:05:49.693Z,81.30
2022-11-20T14:08:29.233Z,81.20
2022-11-20T14:11:06.549Z,81.60
2022-11-20T14:13:33.673Z,81.30
2022-11-20T14:16:00.875Z,81.40
2022-11-20T14:18:28.751Z,81.40
2022-11-20T14:20:55.927Z,80.90
2022-11-20T14:23:30.672Z,80.40
2022-11-20T14:25:58.197Z,80.70
2022-11-20T14:28:32.840Z,81.20
2022-11-20T14:30:59.756Z,81.60
2022-11-20T14:33:28.201Z,81.80
2022-11-20T14:35:58.755Z,82.30
2022-11-20T14:38:29.978Z,82.50
2022-11-20T14:41:07.003Z,82.40
2022-11-20T14:43:37.257Z,82.20
2022-11-20T14:46:08.715Z,82.00
2022-11-20T14:48:41.711Z,82.00
2022-11-20T14:51:12.048Z,81.70
2022-11-20T14:53:39.163Z,81.90
2022-11-20T14:56:06.451Z,81.70
2022-11-20T14:58:34.557Z,81.80
2022-11-20T15:01:03.304Z,82.50
2022-11-20T15:03:34.270Z,82.80
2022-11-20T15:06:01.519Z,82.70
2022-11-20T15:08:28.499Z,83.10
2022-11-20T15:10:56.238Z,82.80
2022-11-20T15:13:39.283Z,82.40
2022-11-20T15:16:19.098Z,82.40
2022-11-20T15:18:45.894Z,82.10
2022-11-20T15:21:14.740Z,82.20
2022-11-20T15:23:41.692Z,82.10
2022-11-20T15:26:15.398Z,82.50
2022-11-20T15:28:46.070Z,82.30
2022-11-20T15:31:13.783Z,81.80
2022-11-20T15:33:40.514Z,81.70
2022-11-20T15:36:07.313Z,81.70
2022-11-20T15:38:34.022Z,81.70
2022-11-20T15:41:00.738Z,81.80
2022-11-20T15:43:27.492Z,82.20
2022-11-20T15:45:56.645Z,82.50
2022-11-20T15:48:23.411Z,82.80
2022-11-20T15:50:50.106Z,82.70
2022-11-20T15:53:16.986Z,82.70
2022-11-20T15:55:43.671Z,82.90
2022-11-20T15:58:10.401Z,83.10
2022-11-20T16:00:37.075Z,83.50
2022-11-20T16:03:03.877Z,83.70
2022-11-20T16:05:30.795Z,84.00
2022-11-20T16:07:57.741Z,84.20
2022-11-20T16:10:24.632Z,84.30
2022-11-20T16:13:10.166Z,84.40
2022-11-20T16:15:46.125Z,84.30
2022-11-20T16:18:13.985Z,84.40
2022-11-20T16:20:40.906Z,84.60
2022-11-20T16:23:07.853Z,84.60
2022-11-20T16:25:34.656Z,84.70
2022-11-20T16:28:01.785Z,84.30
2022-11-20T16:30:28.926Z,84.20
2022-11-20T16:32:55.979Z,84.00
2022-11-20T16:35:22.810Z,84.80
2022-11-20T16:37:49.521Z,84.30
2022-11-20T16:40:16.426Z,83.70
2022-11-20T16:42:43.197Z,83.60
2022-11-20T16:45:10.407Z,83.70
2022-11-20T16:47:37.165Z,84.00
2022-11-20T16:50:04.687Z,83.90
2022-11-20T16:52:31.711Z,84.00
2022-11-20T16:54:58.965Z,84.00
2022-11-20T16:57:27.918Z,84.20
2022-11-20T16:59:58.905Z,84.50
2022-11-20T17:02:28.734Z,84.50
2022-11-20T17:04:55.520Z,84.60
2022-11-20T17:07:22.391Z,84.60
2022-11-20T17:09:49.398Z,84.40
2022-11-20T17:12:16.158Z,84.50
2022-11-20T17:14:42.919Z,84.60
2022-11-20T17:17:09.707Z,84.60
2022-11-20T17:19:36.741Z,84.60
2022-11-20T17:22:11.904Z,85.00
2022-11-20T17:24:42.510Z,85.20
2022-11-20T17:27:10.799Z,85.30
2022-11-20T17:29:58.166Z,85.00
2022-11-20T17:32:24.923Z,84.90
2022-11-20T17:34:51.700Z,85.00
2022-11-20T17:37:18.436Z,85.00
2022-11-20T17:39:45.282Z,84.60
2022-11-20T17:42:27.397Z,84.50
2022-11-20T17:44:54.195Z,84.70
2022-11-20T17:47:20.951Z,84.90
2022-11-20T17:49:47.661Z,85.10
2022-11-20T17:52:14.424Z,85.40
2022-11-20T17:54:41.138Z,85.60
2022-11-20T17:57:27.560Z,85.90
2022-11-20T17:59:54.386Z,86.10
2022-11-20T18:02:21.105Z,86.10
2022-11-20T18:04:47.828Z,86.00
2022-11-20T18:07:14.664Z,85.60
2022-11-20T18:09:41.419Z,85.60
2022-11-20T18:12:08.158Z,85.60
2022-11-20T18:14:36.400Z,85.50
2022-11-20T18:17:05.063Z,85.60
2022-11-20T18:19:36.492Z,85.70
2022-11-20T18:22:07.906Z,86.10
2022-11-20T18:24:36.065Z,86.10
2022-11-20T18:27:03.197Z,85.90
2022-11-20T18:29:31.141Z,85.90
2022-11-20T18:31:59.071Z,86.10
2022-11-20T18:34:26.359Z,86.10
2022-11-20T18:36:53.535Z,86.20
2022-11-20T18:39:20.339Z,86.30
2022-11-20T18:42:05.672Z,86.40
2022-11-20T18:44:51.228Z,86.30
2022-11-20T18:47:25.840Z,86.40
2022-11-20T18:49:53.774Z,86.40
2022-11-20T18:52:22.121Z,86.40
2022-11-20T18:54:49.270Z,86.50
2022-11-20T18:57:17.777Z,86.50
2022-11-20T18:59:44.581Z,86.30
2022-11-20T19:02:16.060Z,86.20
2022-11-20T19:04:43.382Z,86.30
2022-11-20T19:07:13.910Z,86.00
2022-11-20T19:09:41.728Z,86.10
2022-11-20T19:12:09.330Z,86.20
2022-11-20T19:14:36.299Z,86.40
2022-11-20T19:17:04.119Z,86.50
2022-11-20T19:19:30.940Z,86.60
2022-11-20T19:21:57.691Z,86.60
2022-11-20T19:24:24.639Z,86.40
2022-11-20T19:26:51.567Z,86.50
2022-11-20T19:29:18.387Z,86.60
2022-11-20T19:31:45.163Z,86.50
2022-11-20T19:34:12.264Z,86.40
2022-11-20T19:36:44.594Z,86.50
2022-11-20T19:39:12.623Z,86.40
2022-11-20T19:41:39.984Z,86.50
2022-11-20T19:44:07.969Z,86.50
2022-11-20T19:46:35.300Z,86.50
2022-11-20T19:49:02.834Z,86.60
2022-11-20T19:51:31.158Z,86.70
2022-11-20T19:53:59.491Z,86.90
2022-11-20T19:56:27.341Z,86.80
2022-11-20T19:58:54.801Z,86.80
2022-11-20T20:01:23.543Z,86.70
2022-11-20T20:03:50.665Z,86.80
2022-11-20T20:06:19.061Z,87.20
2022-11-20T20:08:46.152Z,87.30
2022-11-20T20:11:17.506Z,87.30
2022-11-20T20:13:44.504Z,87.60
2022-11-20T20:16:12.150Z,87.70
2022-11-20T20:18:39.356Z,88.50
2022-11-20T20:21:07.664Z,88.00
2022-11-20T20:23:35.589Z,87.80
2022-11-20T20:26:03.365Z,87.50
2022-11-20T20:28:30.401Z,87.50
2022-11-20T20:30:57.832Z,87.40
2022-11-20T20:33:24.598Z,87.40
2022-11-20T20:35:51.423Z,87.40
2022-11-20T20:38:18.319Z,87.20
2022-11-20T20:40:49.515Z,87.10
2022-11-20T20:43:16.864Z,87.00
2022-11-20T20:45:48.080Z,87.10
2022-11-20T20:48:19.441Z,87.00
2022-11-20T20:50:55.359Z,86.90
2022-11-20T20:53:22.171Z,86.90
2022-11-20T20:55:59.017Z,86.50
2022-11-20T20:58:26.266Z,86.30
2022-11-20T21:00:53.011Z,86.20
2022-11-20T21:03:20.124Z,86.10
2022-11-20T21:05:47.267Z,86.60
2022-11-20T21:08:24.274Z,86.00
2022-11-20T21:10:54.960Z,86.10
2022-11-20T21:13:22.183Z,86.10
2022-11-20T21:15:50.269Z,86.20
2022-11-20T21:18:18.100Z,86.20
2022-11-20T21:21:04.304Z,86.20
2022-11-20T21:23:31.580Z,86.50
2022-11-20T21:26:00.632Z,86.90
2022-11-20T21:28:27.394Z,87.20
2022-11-20T21:30:54.105Z,87.40
2022-11-20T21:33:20.828Z,87.70
2022-11-20T21:35:47.531Z,88.00
2022-11-20T21:38:14.931Z,88.20
2022-11-20T21:40:41.638Z,88.10
2022-11-20T21:43:08.421Z,87.60
2022-11-20T21:45:35.183Z,87.30
2022-11-20T21:48:01.899Z,87.20
2022-11-20T21:50:28.646Z,87.20
2022-11-20T21:52:55.400Z,87.00
2022-11-20T21:55:22.076Z,86.70
2022-11-20T21:57:48.890Z,86.80
2022-11-20T22:00:15.725Z,86.20
2022-11-20T22:02:42.575Z,86.20
2022-11-20T22:05:09.423Z,86.30
2022-11-20T22:07:36.281Z,86.10
2022-11-20T22:10:03.161Z,86.30
2022-11-20T22:12:30.002Z,86.40
2022-11-20T22:14:56.722Z,86.60
2022-11-20T22:17:43.365Z,87.10
2022-11-20T22:20:10.502Z,87.00
2022-11-20T22:22:37.271Z,87.10
2022-11-20T22:25:04.258Z,87.30
2022-11-20T22:27:31.046Z,87.40
2022-11-20T22:29:57.814Z,87.40
2022-11-20T22:32:24.696Z,87.40
2022-11-20T22:34:51.579Z,87.30
2022-11-20T22:37:18.481Z,87.30
2022-11-20T22:39:45.484Z,87.20
2022-11-20T22:42:12.225Z,87.20
2022-11-20T22:44:39.045Z,87.20
2022-11-20T22:47:11.145Z,87.70
2022-11-20T22:49:38.305Z,86.80
2022-11-20T22:52:05.303Z,86.80
2022-11-20T22:54:32.554Z,86.20
2022-11-20T22:56:59.611Z,86.10
2022-11-20T22:59:26.443Z,85.80
2022-11-20T23:01:53.474Z,85.70
2022-11-20T23:04:20.420Z,85.60
2022-11-20T23:06:47.264Z,85.80
2022-11-20T23:09:14.541Z,85.90
2022-11-20T23:11:41.405Z,86.00
2022-11-20T23:14:12.286Z,86.00
2022-11-20T23:16:39.564Z,86.20
2022-11-20T23:19:08.097Z,86.30
2022-11-20T23:21:35.640Z,86.20
2022-11-20T23:24:02.588Z,86.00
2022-11-20T23:26:30.523Z,86.20
2022-11-20T23:28:58.218Z,86.30
2022-11-20T23:31:25.942Z,86.40
2022-11-20T23:33:52.727Z,86.60
2022-11-20T23:36:19.861Z,86.60
2022-11-20T23:38:46.730Z,86.50
2022-11-20T23:41:13.937Z,86.40
2022-11-20T23:43:40.814Z,86.30
2022-11-20T23:46:09.647Z,86.20
2022-11-20T23:48:39.760Z,85.80
2022-11-20T23:51:07.021Z,85.80
2022-11-20T23:53:34.285Z,85.80
2022-11-20T23:56:02.557Z,85.80
2022-11-20T23:58:33.698Z,85.70
